Time;durP1;ratioP1;P1;durP2;ratioP2;P2;SDS_P1;SDS_P2;PMS_P1;PMS_P2;Temp;Humidity;BMP_temperature;BMP_pressure;BME280_temperature;BME280_humidity;BME280_pressure;Samples;Min_cycle;Max_cycle;Signal;HPM_P1;HPM_P2
2020/12/06 00:01:48;;;;;;;10.45;2.28;;;14.50;99.90;;;;;;4768233;30;20040;-77
2020/12/06 00:04:19;;;;;;;4.55;1.10;;;14.50;99.90;;;;;;4781555;30;20080;-78
2020/12/06 00:06:46;;;;;;;9.32;2.72;;;14.40;99.90;;;;;;4786356;29;20073;-77
2020/12/06 00:09:13;;;;;;;6.80;1.00;;;14.50;99.90;;;;;;4786185;29;20031;-77
2020/12/06 00:11:39;;;;;;;6.50;1.42;;;14.50;99.90;;;;;;4786193;30;20027;-79
2020/12/06 00:14:06;;;;;;;7.60;1.73;;;14.50;99.90;;;;;;4776393;29;20859;-83
2020/12/06 00:16:32;;;;;;;10.27;1.80;;;14.50;99.90;;;;;;4767024;30;20032;-77
2020/12/06 00:18:58;;;;;;;8.60;1.40;;;14.50;99.90;;;;;;4768061;30;20149;-77
2020/12/06 00:21:24;;;;;;;6.93;1.75;;;14.40;99.90;;;;;;4768080;30;20039;-77
2020/12/06 00:23:50;;;;;;;6.93;1.38;;;14.40;99.90;;;;;;4772369;29;20039;-78
2020/12/06 00:26:21;;;;;;;6.43;1.55;;;14.50;99.90;;;;;;4786159;29;20047;-76
2020/12/06 00:28:49;;;;;;;6.15;1.25;;;14.50;99.90;;;;;;4777002;30;20044;-76
2020/12/06 00:31:15;;;;;;;7.75;1.10;;;14.50;99.90;;;;;;4766260;30;20032;-77
2020/12/06 00:33:41;;;;;;;14.27;2.10;;;14.50;99.90;;;;;;4766292;30;20089;-77
2020/12/06 00:36:11;;;;;;;8.35;2.05;;;14.50;99.90;;;;;;4766581;30;20050;-76
2020/12/06 00:38:38;;;;;;;5.25;1.40;;;14.50;99.90;;;;;;4769534;30;20417;-77
2020/12/06 00:41:05;;;;;;;5.10;1.70;;;14.50;99.90;;;;;;4784827;30;20031;-78
2020/12/06 00:43:31;;;;;;;15.75;1.45;;;14.50;99.90;;;;;;4785348;30;20066;-77
2020/12/06 00:45:57;;;;;;;11.95;2.03;;;14.50;99.90;;;;;;4783645;29;20071;-77
2020/12/06 00:48:23;;;;;;;7.82;2.42;;;14.50;99.90;;;;;;4783793;29;20048;-77
2020/12/06 00:50:49;;;;;;;7.90;1.52;;;14.50;99.90;;;;;;4767485;30;20040;-82
2020/12/06 00:53:15;;;;;;;8.23;2.03;;;14.50;99.90;;;;;;4766334;30;20075;-81
2020/12/06 00:55:42;;;;;;;5.55;1.65;;;14.50;99.90;;;;;;4752423;30;20036;-76
2020/12/06 00:58:08;;;;;;;9.20;1.88;;;14.50;99.90;;;;;;4749585;30;20059;-77
2020/12/06 01:00:34;;;;;;;9.85;2.17;;;14.50;99.90;;;;;;4777366;30;20070;-76
2020/12/06 01:03:00;;;;;;;8.32;1.27;;;14.50;99.90;;;;;;4785137;30;20055;-76
2020/12/06 01:05:27;;;;;;;9.18;1.88;;;14.50;99.90;;;;;;4785073;29;20572;-77
2020/12/06 01:07:53;;;;;;;6.28;1.30;;;14.50;99.90;;;;;;4785055;29;20039;-76
2020/12/06 01:10:19;;;;;;;5.65;1.50;;;14.50;99.90;;;;;;4775696;30;20040;-82
2020/12/06 01:12:45;;;;;;;11.10;2.13;;;14.50;99.90;;;;;;4766828;30;20113;-76
2020/12/06 01:15:11;;;;;;;5.25;1.27;;;14.50;99.90;;;;;;4766705;30;20113;-77
2020/12/06 01:17:38;;;;;;;2.53;1.10;;;14.50;99.90;;;;;;4766930;30;20651;-76
2020/12/06 01:20:06;;;;;;;6.22;1.35;;;14.50;99.90;;;;;;4771367;30;20477;-76
2020/12/06 01:22:32;;;;;;;4.47;1.05;;;14.50;99.90;;;;;;4784868;30;20371;-79
2020/12/06 01:24:58;;;;;;;6.18;1.40;;;14.50;99.90;;;;;;4784448;30;20059;-77
2020/12/06 01:27:24;;;;;;;5.55;1.65;;;14.50;99.90;;;;;;4784684;30;20510;-78
2020/12/06 01:29:50;;;;;;;10.65;1.55;;;14.50;99.90;;;;;;4783986;29;20506;-77
2020/12/06 01:32:17;;;;;;;5.20;1.33;;;14.50;99.90;;;;;;4762379;30;20367;-78
2020/12/06 01:34:43;;;;;;;8.35;1.27;;;14.60;99.90;;;;;;4748810;30;20043;-77
2020/12/06 01:37:09;;;;;;;5.80;1.25;;;14.60;99.90;;;;;;4748947;30;20040;-77
2020/12/06 01:39:35;;;;;;;2.67;1.27;;;14.60;99.90;;;;;;4749286;30;20098;-77
2020/12/06 01:42:01;;;;;;;6.55;1.55;;;14.60;99.90;;;;;;4777800;30;20035;-77
2020/12/06 01:44:28;;;;;;;6.18;1.38;;;14.60;99.90;;;;;;4784675;29;20379;-80
2020/12/06 01:46:58;;;;;;;10.70;1.63;;;14.60;99.90;;;;;;4784299;29;20071;-77
2020/12/06 01:49:26;;;;;;;9.48;1.85;;;14.60;99.90;;;;;;4784184;30;20035;-77
2020/12/06 01:51:57;;;;;;;8.30;1.70;;;14.60;99.90;;;;;;4773187;29;20035;-77
2020/12/06 01:54:23;;;;;;;6.60;1.98;;;14.60;99.90;;;;;;4766173;30;20081;-76
2020/12/06 01:56:50;;;;;;;7.93;1.85;;;14.50;99.90;;;;;;4766030;30;20110;-81
2020/12/06 01:59:17;;;;;;;5.20;1.50;;;14.50;99.90;;;;;;4766299;30;20067;-81
2020/12/06 02:02:04;;;;;;;19.33;2.42;;;14.50;99.90;;;;;;4773253;30;20034;-76
2020/12/06 02:04:31;;;;;;;6.43;1.33;;;14.40;99.90;;;;;;4784219;30;20037;-77
2020/12/06 02:06:58;;;;;;;9.15;2.13;;;14.50;99.90;;;;;;4784175;30;20031;-76
2020/12/06 02:09:31;;;;;;;15.05;1.80;;;14.50;99.90;;;;;;4784307;29;20035;-82
2020/12/06 02:11:59;;;;;;;9.30;1.92;;;14.40;99.90;;;;;;4777575;29;20039;-81
2020/12/06 02:14:27;;;;;;;5.70;1.77;;;14.50;99.90;;;;;;4766137;30;20051;-77
2020/12/06 02:16:54;;;;;;;9.30;2.53;;;14.50;99.90;;;;;;4767512;30;20040;-77
2020/12/06 02:19:20;;;;;;;6.25;1.58;;;14.50;99.90;;;;;;4765949;30;20089;-77
2020/12/06 02:21:46;;;;;;;6.35;1.63;;;14.50;99.90;;;;;;4768248;30;20052;-78
2020/12/06 02:24:15;;;;;;;5.03;1.08;;;14.50;99.90;;;;;;4782945;30;20445;-77
2020/12/06 02:26:47;;;;;;;14.65;1.88;;;14.50;99.90;;;;;;4782945;29;20046;-79
2020/12/06 02:29:14;;;;;;;4.25;1.40;;;14.60;99.90;;;;;;4783719;30;20090;-76
2020/12/06 02:31:40;;;;;;;6.38;1.67;;;14.60;99.90;;;;;;4783775;30;20035;-76
2020/12/06 02:34:08;;;;;;;8.70;1.20;;;14.60;99.90;;;;;;4766556;29;20040;-77
2020/12/06 02:36:34;;;;;;;5.45;1.48;;;14.60;99.90;;;;;;4765022;30;20036;-77
2020/12/06 02:39:00;;;;;;;9.75;1.63;;;14.60;99.90;;;;;;4766243;30;20043;-76
2020/12/06 02:41:37;;;;;;;11.32;2.17;;;14.70;99.90;;;;;;4765922;30;20023;-77
2020/12/06 02:44:05;;;;;;;5.22;1.42;;;14.70;99.90;;;;;;4780150;29;20509;-81
2020/12/06 02:46:31;;;;;;;6.45;1.52;;;14.70;99.90;;;;;;4783663;29;20058;-76
2020/12/06 02:48:58;;;;;;;3.88;1.33;;;14.70;99.90;;;;;;4787542;30;20118;-77
2020/12/06 02:51:24;;;;;;;8.88;1.77;;;14.70;99.90;;;;;;4787675;30;20031;-77
2020/12/06 02:53:51;;;;;;;8.13;1.25;;;14.70;99.90;;;;;;4776931;29;20043;-77
2020/12/06 02:56:17;;;;;;;5.97;1.45;;;14.70;99.90;;;;;;4769609;30;20035;-77
2020/12/06 02:58:43;;;;;;;14.07;1.67;;;14.70;99.90;;;;;;4769442;30;20035;-77
2020/12/06 03:01:09;;;;;;;6.60;1.25;;;14.80;99.90;;;;;;4770201;30;20056;-76
2020/12/06 03:03:35;;;;;;;7.00;2.10;;;14.80;99.90;;;;;;4769319;30;20053;-79
2020/12/06 03:06:02;;;;;;;7.82;2.03;;;14.80;99.90;;;;;;4767819;30;20042;-82
2020/12/06 03:08:29;;;;;;;6.22;1.67;;;14.80;99.90;;;;;;4769374;30;20059;-77
2020/12/06 03:10:55;;;;;;;5.28;1.45;;;14.90;99.90;;;;;;4772603;29;20089;-82
2020/12/06 03:13:21;;;;;;;9.05;1.98;;;14.90;99.90;;;;;;4786890;29;20084;-76
2020/12/06 03:15:47;;;;;;;7.32;1.30;;;14.90;99.90;;;;;;4785491;30;20399;-76
2020/12/06 03:18:14;;;;;;;10.98;1.35;;;14.90;99.90;;;;;;4787088;30;20035;-80
2020/12/06 03:20:40;;;;;;;8.57;1.83;;;14.80;99.90;;;;;;4787275;29;20035;-77
2020/12/06 03:23:06;;;;;;;10.55;1.95;;;14.90;99.90;;;;;;4769382;30;20031;-81
2020/12/06 03:25:32;;;;;;;10.05;2.35;;;14.90;99.90;;;;;;4781966;30;20031;-76
2020/12/06 03:27:58;;;;;;;9.93;1.35;;;14.80;99.90;;;;;;4786751;29;20031;-76
2020/12/06 03:30:24;;;;;;;12.27;1.15;;;14.80;99.90;;;;;;4798169;29;20221;-76
2020/12/06 03:32:50;;;;;;;2.53;1.17;;;14.80;99.90;;;;;;4767313;30;20044;-76
2020/12/06 03:35:16;;;;;;;4.13;1.50;;;14.80;99.90;;;;;;4752529;30;20472;-83
2020/12/06 03:37:42;;;;;;;10.32;1.88;;;14.80;99.90;;;;;;4751034;30;20124;-82
2020/12/06 03:40:08;;;;;;;6.28;1.20;;;14.80;99.90;;;;;;4751044;30;20032;-82
2020/12/06 03:42:34;;;;;;;8.52;1.75;;;14.80;99.90;;;;;;4782935;29;20057;-76
2020/12/06 03:45:01;;;;;;;5.70;1.10;;;14.80;99.90;;;;;;4786625;29;20103;-77
2020/12/06 03:47:27;;;;;;;12.88;2.17;;;14.80;99.90;;;;;;4800661;29;20525;-77
2020/12/06 03:49:53;;;;;;;5.70;1.42;;;14.80;99.90;;;;;;4786311;30;20541;-77
2020/12/06 03:52:19;;;;;;;10.82;1.50;;;14.90;99.90;;;;;;4788300;29;20028;-81
2020/12/06 03:54:45;;;;;;;7.57;1.27;;;14.90;99.90;;;;;;4768676;30;20054;-76
2020/12/06 03:57:11;;;;;;;9.95;1.98;;;14.90;99.90;;;;;;4768613;30;20031;-82
2020/12/06 03:59:37;;;;;;;9.00;2.15;;;14.90;99.90;;;;;;4766361;30;20447;-77
2020/12/06 04:02:03;;;;;;;5.47;1.40;;;14.90;99.90;;;;;;4775405;30;20027;-77
2020/12/06 04:04:29;;;;;;;9.18;1.70;;;14.90;99.90;;;;;;4781122;29;20184;-77
2020/12/06 04:06:55;;;;;;;3.17;1.50;;;14.90;99.90;;;;;;4751386;30;20044;-77
2020/12/06 04:09:22;;;;;;;5.90;1.20;;;14.90;99.90;;;;;;4750516;30;20036;-79
2020/12/06 04:11:48;;;;;;;10.63;1.67;;;14.90;99.90;;;;;;4756315;30;20042;-81
2020/12/06 04:14:14;;;;;;;5.28;1.70;;;15.00;99.90;;;;;;4785867;29;20144;-82
2020/12/06 04:16:40;;;;;;;8.43;1.83;;;15.00;99.90;;;;;;4784681;29;20449;-78
2020/12/06 04:19:06;;;;;;;7.47;1.30;;;15.00;99.90;;;;;;4786071;29;20046;-76
2020/12/06 04:21:32;;;;;;;6.00;1.30;;;15.00;99.90;;;;;;4786360;29;20027;-82
2020/12/06 04:23:58;;;;;;;5.75;1.40;;;15.00;99.90;;;;;;4769426;30;20452;-78
2020/12/06 04:26:24;;;;;;;4.22;1.27;;;15.00;99.90;;;;;;4768436;30;20035;-77
2020/12/06 04:28:50;;;;;;;10.27;1.48;;;15.00;99.90;;;;;;4767938;30;20067;-81
2020/12/06 04:31:16;;;;;;;9.23;2.15;;;15.00;99.90;;;;;;4767897;30;20036;-81
2020/12/06 04:33:42;;;;;;;9.88;2.03;;;15.00;99.90;;;;;;4779622;30;20063;-78
2020/12/06 04:36:09;;;;;;;9.90;2.15;;;15.10;99.90;;;;;;4779839;29;20039;-77
2020/12/06 04:38:35;;;;;;;4.95;2.55;;;15.10;99.90;;;;;;4767854;30;20691;-77
2020/12/06 04:41:01;;;;;;;10.73;2.60;;;15.10;99.90;;;;;;4766736;30;20046;-76
2020/12/06 04:43:29;;;;;;;11.13;2.78;;;15.20;99.90;;;;;;4774946;30;20038;-77
2020/12/06 04:45:56;;;;;;;9.30;3.00;;;15.10;99.90;;;;;;4785563;29;20059;-78
2020/12/06 04:48:41;;;;;;;7.18;2.10;;;15.10;99.90;;;;;;4785448;30;20126;-81
2020/12/06 04:51:12;;;;;;;16.23;3.28;;;15.20;99.90;;;;;;4785420;29;20529;-77
2020/12/06 04:53:55;;;;;;;10.85;2.30;;;15.20;99.90;;;;;;4784899;30;20130;-77
2020/12/06 04:56:23;;;;;;;14.18;3.88;;;15.20;99.90;;;;;;4785608;30;20043;-81
2020/12/06 04:58:52;;;;;;;12.93;3.38;;;15.20;99.90;;;;;;4785418;29;20039;-77
2020/12/06 05:01:19;;;;;;;8.38;2.33;;;15.20;99.90;;;;;;4785274;30;20035;-76
2020/12/06 05:03:48;;;;;;;10.93;2.65;;;15.20;99.90;;;;;;4780154;29;20040;-83
2020/12/06 05:06:19;;;;;;;11.07;3.20;;;15.20;99.90;;;;;;4767246;30;20062;-76
2020/12/06 05:08:46;;;;;;;11.73;3.00;;;15.20;99.90;;;;;;4767331;30;20471;-76
2020/12/06 05:11:12;;;;;;;7.40;2.95;;;15.20;99.90;;;;;;4766997;30;20039;-77
2020/12/06 05:13:38;;;;;;;11.38;2.92;;;15.20;99.90;;;;;;4768564;30;20048;-77
2020/12/06 05:16:09;;;;;;;15.20;3.35;;;15.20;99.90;;;;;;4785208;29;20088;-77
2020/12/06 05:18:36;;;;;;;10.98;2.58;;;15.20;99.90;;;;;;4785199;29;20035;-77
2020/12/06 05:21:02;;;;;;;10.23;2.80;;;15.20;99.90;;;;;;4785240;29;20035;-79
2020/12/06 05:23:28;;;;;;;8.95;3.90;;;15.20;99.90;;;;;;4785080;29;20039;-77
2020/12/06 05:25:54;;;;;;;11.95;2.78;;;15.30;99.90;;;;;;4769918;29;20532;-77
2020/12/06 05:28:22;;;;;;;12.27;3.28;;;15.30;99.90;;;;;;4765656;30;20411;-81
2020/12/06 05:30:48;;;;;;;16.88;3.65;;;15.30;99.90;;;;;;4767188;30;20040;-77
2020/12/06 05:33:17;;;;;;;14.48;4.32;;;15.20;99.90;;;;;;4766713;30;20062;-79
2020/12/06 05:35:43;;;;;;;12.70;3.78;;;15.30;99.90;;;;;;4778640;29;20552;-79
2020/12/06 05:38:10;;;;;;;7.68;2.53;;;15.30;99.90;;;;;;4784566;29;20039;-77
2020/12/06 05:40:45;;;;;;;10.40;3.45;;;15.30;99.90;;;;;;4784874;29;20027;-77
2020/12/06 05:43:13;;;;;;;11.38;2.90;;;15.20;99.90;;;;;;4784510;29;20045;-77
2020/12/06 05:45:39;;;;;;;11.35;2.60;;;15.30;99.90;;;;;;4775355;30;20036;-77
2020/12/06 05:48:06;;;;;;;14.07;3.10;;;15.30;99.90;;;;;;4766692;30;20573;-77
2020/12/06 05:50:33;;;;;;;12.35;3.10;;;15.20;99.90;;;;;;4767056;30;20051;-77
2020/12/06 05:53:00;;;;;;;10.20;2.75;;;15.30;99.90;;;;;;4766444;30;20564;-77
2020/12/06 05:55:28;;;;;;;21.23;3.88;;;15.30;99.90;;;;;;4771207;30;20035;-76
2020/12/06 05:57:54;;;;;;;9.98;3.80;;;15.30;99.90;;;;;;4784321;29;20038;-82
2020/12/06 06:00:21;;;;;;;6.30;3.05;;;15.30;99.90;;;;;;4779261;30;21275;-76
2020/12/06 06:02:54;;;;;;;8.95;3.20;;;15.30;99.90;;;;;;4757950;30;20029;-77
2020/12/06 06:05:20;;;;;;;;;;;15.30;99.90;;;;;;4752420;30;20159;-80
2020/12/06 06:07:53;;;;;;;6.60;2.45;;;15.30;99.90;;;;;;4771280;29;19964;-79
2020/12/06 06:10:23;;;;;;;11.32;4.00;;;15.40;99.90;;;;;;4765997;30;20115;-77
2020/12/06 06:12:54;;;;;;;10.23;2.58;;;15.40;99.90;;;;;;4779580;29;20487;-77
2020/12/06 06:15:21;;;;;;;15.23;3.45;;;15.40;99.90;;;;;;4765982;30;20038;-77
2020/12/06 06:17:50;;;;;;;13.10;2.97;;;15.40;99.90;;;;;;4783157;30;20498;-77
2020/12/06 06:20:16;;;;;;;13.95;2.85;;;15.40;99.90;;;;;;4768763;30;20488;-79
2020/12/06 06:22:45;;;;;;;9.65;3.28;;;15.40;99.90;;;;;;4765172;30;20139;-77
2020/12/06 06:25:12;;;;;;;17.13;3.17;;;15.40;99.90;;;;;;4765886;30;20036;-78
2020/12/06 06:27:40;;;;;;;9.30;2.90;;;15.50;99.90;;;;;;4765369;30;20040;-73
2020/12/06 06:30:10;;;;;;;5.80;3.72;;;15.50;99.90;;;;;;4765871;30;20040;-79
2020/12/06 06:32:37;;;;;;;12.77;2.70;;;15.50;99.90;;;;;;4765317;30;20043;-73
2020/12/06 06:35:05;;;;;;;10.73;3.00;;;15.50;99.90;;;;;;4765924;30;20130;-73
2020/12/06 06:37:33;;;;;;;8.48;2.38;;;15.60;99.90;;;;;;4772846;29;20035;-73
2020/12/06 06:40:02;;;;;;;13.05;3.72;;;15.60;99.90;;;;;;4783663;29;20042;-73
2020/12/06 06:42:29;;;;;;;9.68;2.95;;;15.60;99.90;;;;;;4783577;29;20127;-74
2020/12/06 06:45:12;;;;;;;11.98;3.97;;;15.70;99.90;;;;;;4775703;29;20023;-73
2020/12/06 06:47:40;;;;;;;9.48;3.28;;;15.70;99.90;;;;;;4778384;30;20097;-73
2020/12/06 06:50:09;;;;;;;16.85;3.20;;;15.70;99.90;;;;;;4765537;30;20109;-73
2020/12/06 06:52:36;;;;;;;22.75;3.38;;;15.80;99.90;;;;;;4765506;30;20161;-73
2020/12/06 06:55:05;;;;;;;13.63;2.95;;;15.80;99.90;;;;;;4772972;29;20560;-73
2020/12/06 06:57:31;;;;;;;19.40;4.18;;;15.80;99.90;;;;;;4765871;30;20028;-83
2020/12/06 07:00:04;;;;;;;23.45;4.63;;;15.80;99.90;;;;;;4765565;30;20051;-73
2020/12/06 07:02:40;;;;;;;9.68;3.53;;;15.80;99.90;;;;;;4771789;30;20051;-82
2020/12/06 07:05:12;;;;;;;14.68;4.15;;;15.80;99.90;;;;;;4783341;29;20047;-73
2020/12/06 07:07:52;;;;;;;9.50;3.45;;;15.80;99.90;;;;;;4783567;29;20036;-73
2020/12/06 07:10:20;;;;;;;28.65;4.90;;;15.90;99.90;;;;;;4782133;29;20043;-73
2020/12/06 07:12:47;;;;;;;13.18;3.42;;;15.90;99.90;;;;;;4768670;29;20042;-79
2020/12/06 07:15:15;;;;;;;29.40;3.80;;;15.90;99.90;;;;;;4765694;30;20050;-74
2020/12/06 07:17:41;;;;;;;11.90;2.55;;;16.00;99.90;;;;;;4765473;30;20058;-73
2020/12/06 07:20:09;;;;;;;7.00;2.63;;;16.00;99.90;;;;;;4765483;30;20047;-85
2020/12/06 07:22:53;;;;;;;14.90;3.17;;;16.00;99.90;;;;;;4773511;30;20411;-73
2020/12/06 07:25:22;;;;;;;8.32;2.65;;;16.00;99.90;;;;;;4769897;30;20088;-73
2020/12/06 07:27:48;;;;;;;6.20;2.03;;;16.10;99.90;;;;;;4765453;30;20399;-73
2020/12/06 07:30:19;;;;;;;16.02;3.33;;;16.20;99.90;;;;;;4765303;30;20040;-72
2020/12/06 07:32:45;;;;;;;6.53;3.17;;;16.20;99.90;;;;;;4772441;29;20054;-73
2020/12/06 07:35:15;;;;;;;17.80;3.67;;;16.20;99.90;;;;;;4777429;30;20487;-72
2020/12/06 07:37:42;;;;;;;10.55;2.95;;;16.30;99.90;;;;;;4768514;30;20547;-73
2020/12/06 07:40:10;;;;;;;18.55;2.92;;;16.30;99.90;;;;;;4768718;30;20452;-74
2020/12/06 07:42:37;;;;;;;18.60;3.38;;;16.30;99.90;;;;;;4772751;30;20031;-81
2020/12/06 07:45:06;;;;;;;13.18;3.30;;;16.30;99.90;;;;;;4786269;30;20043;-73
2020/12/06 07:47:32;;;;;;;19.48;3.17;;;16.40;99.90;;;;;;4786234;29;20059;-73
2020/12/06 07:50:00;;;;;;;7.28;2.10;;;16.40;99.90;;;;;;4786357;29;20039;-73
2020/12/06 07:52:33;;;;;;;14.10;3.28;;;16.40;99.90;;;;;;4786348;29;20028;-73
2020/12/06 07:55:05;;;;;;;13.90;4.10;;;16.50;99.90;;;;;;4752251;30;20044;-73
2020/12/06 07:57:40;;;;;;;10.85;2.92;;;16.50;99.90;;;;;;4768529;30;20039;-73
2020/12/06 08:00:37;;;;;;;15.30;3.33;;;16.50;99.90;;;;;;4767982;30;20036;-74
2020/12/06 08:03:06;;;;;;;12.93;2.90;;;16.40;99.90;;;;;;4768740;30;20495;-82
2020/12/06 08:05:40;;;;;;;8.05;3.22;;;16.50;99.90;;;;;;4772978;30;20028;-74
2020/12/06 08:08:18;;;;;;;11.48;2.92;;;16.60;99.90;;;;;;4766722;30;20141;-74
2020/12/06 08:10:51;;;;;;;13.00;3.55;;;16.70;99.90;;;;;;4780520;29;20028;-73
2020/12/06 08:13:17;;;;;;;7.80;3.03;;;16.80;99.90;;;;;;4766232;30;20559;-74
2020/12/06 08:15:46;;;;;;;10.48;3.00;;;16.80;99.90;;;;;;4783411;29;20031;-73
2020/12/06 08:18:13;;;;;;;12.32;3.20;;;16.80;99.90;;;;;;4784258;30;20063;-74
2020/12/06 08:20:40;;;;;;;13.02;2.50;;;16.80;99.90;;;;;;4784237;29;20031;-74
2020/12/06 08:23:06;;;;;;;11.82;3.53;;;16.90;99.90;;;;;;4785987;30;20031;-85
2020/12/06 08:25:45;;;;;;;10.95;3.65;;;16.90;99.90;;;;;;4772384;30;20031;-73
2020/12/06 08:28:18;;;;;;;15.13;4.22;;;16.90;99.90;;;;;;4768145;30;20101;-85
2020/12/06 08:30:44;;;;;;;14.00;3.15;;;17.00;99.90;;;;;;4768253;30;20042;-86
2020/12/06 08:33:10;;;;;;;8.35;2.03;;;17.00;99.90;;;;;;4767855;30;20070;-80
2020/12/06 08:35:47;;;;;;;7.40;2.67;;;17.00;99.90;;;;;;4769230;30;20031;-85
2020/12/06 08:38:24;;;;;;;15.88;3.08;;;17.00;99.90;;;;;;4767902;30;20101;-74
2020/12/06 08:41:07;;;;;;;7.25;2.53;;;17.00;99.90;;;;;;4767729;30;20051;-74
2020/12/06 08:43:50;;;;;;;7.50;2.63;;;17.10;99.90;;;;;;4767831;30;20040;-74
2020/12/06 08:46:19;;;;;;;4.15;2.15;;;17.10;99.90;;;;;;4781785;30;20039;-74
2020/12/06 08:48:46;;;;;;;13.20;2.42;;;17.20;99.90;;;;;;4784749;29;20043;-75
2020/12/06 08:51:37;;;;;;;11.75;2.38;;;17.20;99.90;;;;;;4785809;30;20039;-76
2020/12/06 08:54:08;;;;;;;13.15;2.45;;;17.20;99.90;;;;;;4785395;29;20126;-87
2020/12/06 08:56:43;;;;;;;8.23;2.53;;;17.20;99.90;;;;;;4774090;30;20036;-74
2020/12/06 08:59:10;;;;;;;7.80;2.17;;;17.20;99.90;;;;;;4767737;30;20051;-74
2020/12/06 09:01:53;;;;;;;15.48;3.63;;;17.20;99.90;;;;;;4767746;30;20116;-74
2020/12/06 09:04:19;;;;;;;15.30;3.00;;;17.20;99.90;;;;;;4767502;30;20039;-73
2020/12/06 09:06:46;;;;;;;10.40;3.33;;;17.30;99.90;;;;;;4768361;30;20040;-74
2020/12/06 09:09:13;;;;;;;15.20;3.30;;;17.30;99.90;;;;;;4767583;30;20043;-75
2020/12/06 09:11:39;;;;;;;7.05;2.25;;;17.40;99.90;;;;;;4766290;30;20032;-80
2020/12/06 09:14:06;;;;;;;8.20;1.92;;;17.40;99.90;;;;;;4767120;30;20050;-74
2020/12/06 09:16:32;;;;;;;9.30;2.42;;;17.50;99.90;;;;;;4775974;29;20407;-74
2020/12/06 09:18:58;;;;;;;7.35;2.97;;;17.50;99.90;;;;;;4784778;29;20538;-74
2020/12/06 09:21:25;;;;;;;15.80;3.78;;;17.40;99.90;;;;;;4784797;29;20027;-73
2020/12/06 09:23:51;;;;;;;12.27;3.35;;;17.40;99.90;;;;;;4779300;29;20031;-74
2020/12/06 09:26:17;;;;;;;13.50;3.10;;;17.40;99.90;;;;;;4775708;30;20115;-74
2020/12/06 09:28:43;;;;;;;11.65;3.13;;;17.30;99.90;;;;;;4776969;30;20043;-85
2020/12/06 09:31:10;;;;;;;16.25;3.20;;;17.30;99.90;;;;;;4782086;29;20031;-74
2020/12/06 09:33:36;;;;;;;7.93;3.03;;;17.20;99.90;;;;;;4779233;29;20125;-74
2020/12/06 09:36:06;;;;;;;16.52;3.10;;;17.20;99.90;;;;;;4784106;29;20035;-74
2020/12/06 09:38:37;;;;;;;12.20;3.22;;;17.20;99.90;;;;;;4784820;29;20031;-77
2020/12/06 09:41:07;;;;;;;15.10;2.58;;;17.30;99.90;;;;;;4783363;29;20503;-74
2020/12/06 09:43:37;;;;;;;7.40;3.53;;;17.40;99.90;;;;;;4784709;29;20039;-80
2020/12/06 09:46:09;;;;;;;9.07;2.58;;;17.70;99.90;;;;;;4784258;30;20088;-83
2020/12/06 09:48:37;;;;;;;16.83;3.30;;;18.00;99.90;;;;;;4783045;30;20059;-73
2020/12/06 09:51:05;;;;;;;13.80;2.55;;;18.30;99.90;;;;;;4771024;29;20040;-73
2020/12/06 09:53:31;;;;;;;7.78;2.50;;;18.40;99.90;;;;;;4760838;30;20087;-79
2020/12/06 09:55:57;;;;;;;7.05;2.13;;;18.40;99.90;;;;;;4748086;30;20612;-73
2020/12/06 09:58:24;;;;;;;13.98;2.85;;;18.30;99.90;;;;;;4760273;30;20403;-85
2020/12/06 10:00:50;;;;;;;10.55;2.78;;;18.30;99.90;;;;;;4766143;30;20070;-73
2020/12/06 10:03:16;;;;;;;11.20;2.75;;;18.30;99.90;;;;;;4766076;30;20547;-73
2020/12/06 10:05:43;;;;;;;11.70;3.03;;;18.20;99.90;;;;;;4766466;30;20036;-72
2020/12/06 10:08:09;;;;;;;11.68;1.80;;;18.20;99.90;;;;;;4772564;30;20066;-73
2020/12/06 10:10:35;;;;;;;6.88;2.05;;;18.20;99.90;;;;;;4769259;30;20517;-73
2020/12/06 10:13:02;;;;;;;8.55;3.28;;;18.10;99.90;;;;;;4780367;29;20040;-83
2020/12/06 10:15:28;;;;;;;15.05;3.47;;;17.90;99.90;;;;;;4783841;29;20151;-74
2020/12/06 10:17:54;;;;;;;8.70;2.97;;;18.10;99.90;;;;;;4783974;29;20110;-73
2020/12/06 10:20:20;;;;;;;12.32;2.60;;;18.00;99.90;;;;;;4784045;29;20027;-73
2020/12/06 10:22:46;;;;;;;9.82;2.92;;;17.90;99.90;;;;;;4783420;30;20118;-73
2020/12/06 10:25:13;;;;;;;12.65;3.40;;;17.90;99.90;;;;;;4771001;30;20038;-82
2020/12/06 10:27:39;;;;;;;12.32;2.80;;;17.70;99.90;;;;;;4766017;30;20539;-73
2020/12/06 10:30:06;;;;;;;15.93;2.67;;;17.60;99.90;;;;;;4766119;30;20548;-76
2020/12/06 10:32:32;;;;;;;9.38;2.78;;;17.50;99.90;;;;;;4765973;30;20039;-72
2020/12/06 10:34:58;;;;;;;22.98;3.30;;;17.40;99.90;;;;;;4772969;30;20120;-81
2020/12/06 10:37:25;;;;;;;12.02;3.55;;;17.30;99.90;;;;;;4766091;30;20395;-74
2020/12/06 10:39:53;;;;;;;12.85;3.20;;;17.30;99.90;;;;;;4765505;30;20044;-74
2020/12/06 10:42:19;;;;;;;11.07;2.80;;;17.20;99.90;;;;;;4765546;30;20519;-73
2020/12/06 10:44:45;;;;;;;15.50;3.55;;;17.10;99.90;;;;;;4766137;30;20095;-84
2020/12/06 10:47:14;;;;;;;15.90;3.53;;;17.10;99.90;;;;;;4772019;29;20051;-73
2020/12/06 10:49:42;;;;;;;18.42;4.63;;;17.10;99.90;;;;;;4783885;30;20457;-73
2020/12/06 10:52:09;;;;;;;9.88;3.22;;;17.10;99.90;;;;;;4783689;29;20092;-73
2020/12/06 10:54:36;;;;;;;13.75;2.95;;;17.20;99.90;;;;;;4783695;30;20071;-74
2020/12/06 10:57:02;;;;;;;19.88;4.20;;;17.20;99.90;;;;;;4782857;29;20105;-74
2020/12/06 10:59:28;;;;;;;9.95;2.83;;;17.20;99.90;;;;;;4783633;30;20549;-73
2020/12/06 11:01:54;;;;;;;17.70;4.13;;;17.20;99.90;;;;;;4768579;30;20036;-74
2020/12/06 11:04:20;;;;;;;12.65;3.10;;;17.20;99.90;;;;;;4765650;30;20048;-75
2020/12/06 11:06:46;;;;;;;9.88;3.25;;;17.20;99.90;;;;;;4765522;30;20114;-74
2020/12/06 11:09:12;;;;;;;11.68;4.03;;;17.30;99.90;;;;;;4784157;30;20475;-74
2020/12/06 11:11:38;;;;;;;11.93;3.15;;;17.30;99.90;;;;;;4786686;29;20035;-73
2020/12/06 11:14:05;;;;;;;7.45;3.22;;;17.30;99.90;;;;;;4785399;29;20112;-73
2020/12/06 11:16:31;;;;;;;11.48;3.63;;;17.30;99.90;;;;;;4786614;29;20055;-84
2020/12/06 11:18:57;;;;;;;29.20;6.22;;;17.30;99.90;;;;;;4775030;29;20340;-74
2020/12/06 11:21:23;;;;;;;19.73;4.00;;;17.40;99.90;;;;;;4768894;30;20044;-78
2020/12/06 11:23:49;;;;;;;12.40;3.33;;;17.40;99.90;;;;;;4768778;30;20035;-73
2020/12/06 11:26:17;;;;;;;16.40;4.95;;;17.40;99.90;;;;;;4768816;30;20027;-73
2020/12/06 11:28:47;;;;;;;18.92;4.32;;;17.40;99.90;;;;;;4775793;30;20031;-74
2020/12/06 11:31:14;;;;;;;18.98;3.97;;;17.50;99.90;;;;;;4779106;30;20039;-73
2020/12/06 11:33:40;;;;;;;14.65;3.65;;;17.60;99.90;;;;;;4784810;30;20083;-74
2020/12/06 11:36:07;;;;;;;9.27;3.13;;;17.80;99.90;;;;;;4779297;29;20027;-74
2020/12/06 11:38:33;;;;;;;17.73;4.57;;;18.00;99.90;;;;;;4786766;29;20515;-73
2020/12/06 11:40:59;;;;;;;16.02;3.83;;;18.00;99.90;;;;;;4786225;29;20122;-74
2020/12/06 11:43:26;;;;;;;10.25;3.55;;;18.00;99.90;;;;;;4774619;29;20032;-74
2020/12/06 11:45:52;;;;;;;19.23;4.35;;;18.00;99.90;;;;;;4770648;30;20031;-75
2020/12/06 11:48:18;;;;;;;25.00;4.75;;;18.00;99.90;;;;;;4769220;30;20048;-73
2020/12/06 11:50:47;;;;;;;14.10;3.92;;;18.00;99.90;;;;;;4768494;30;20048;-74
2020/12/06 11:53:13;;;;;;;12.85;3.75;;;17.90;99.90;;;;;;4752407;30;20055;-84
2020/12/06 11:55:40;;;;;;;11.55;3.80;;;17.80;99.90;;;;;;4768575;30;20384;-77
2020/12/06 11:58:06;;;;;;;22.98;4.30;;;17.80;99.90;;;;;;4774676;29;20543;-77
2020/12/06 12:00:32;;;;;;;9.75;3.95;;;17.80;99.90;;;;;;4784602;30;20494;-77
2020/12/06 12:02:58;;;;;;;20.35;3.63;;;17.70;99.90;;;;;;4786073;29;20077;-76
2020/12/06 12:05:24;;;;;;;12.88;3.75;;;17.70;99.90;;;;;;4785536;30;20524;-73
2020/12/06 12:07:51;;;;;;;10.30;3.15;;;17.70;99.90;;;;;;4785836;29;20114;-86
2020/12/06 12:10:17;;;;;;;12.52;2.90;;;18.00;99.90;;;;;;4785956;29;20031;-73
2020/12/06 12:12:44;;;;;;;15.05;4.15;;;18.20;99.90;;;;;;4768554;30;20032;-73
2020/12/06 12:15:10;;;;;;;15.13;4.22;;;18.30;99.90;;;;;;4769114;30;20040;-73
2020/12/06 12:17:36;;;;;;;13.27;3.10;;;18.30;99.90;;;;;;4783416;29;20391;-73
2020/12/06 12:20:09;;;;;;;20.20;3.75;;;18.30;99.90;;;;;;4785115;29;20035;-73
2020/12/06 12:22:35;;;;;;;14.82;3.17;;;18.10;99.90;;;;;;4786055;29;20185;-73
2020/12/06 12:25:01;;;;;;;26.88;4.75;;;17.90;99.90;;;;;;4784674;30;20034;-73
2020/12/06 12:27:27;;;;;;;10.35;3.08;;;17.70;99.90;;;;;;4784764;29;20043;-73
2020/12/06 12:29:53;;;;;;;24.25;5.10;;;17.70;99.90;;;;;;4786219;30;20035;-73
2020/12/06 12:32:19;;;;;;;12.50;3.67;;;17.60;99.90;;;;;;4786023;29;20043;-75
2020/12/06 12:34:45;;;;;;;16.92;4.00;;;17.50;99.90;;;;;;4780950;30;20051;-74
2020/12/06 12:37:15;;;;;;;12.90;4.07;;;17.60;99.90;;;;;;4768190;30;20054;-87
2020/12/06 12:39:42;;;;;;;21.70;5.60;;;17.50;99.90;;;;;;4768230;30;20399;-75
2020/12/06 12:42:08;;;;;;;14.43;4.00;;;17.60;99.90;;;;;;4768039;30;20039;-75
2020/12/06 12:44:34;;;;;;;10.00;3.03;;;17.60;99.90;;;;;;4769784;30;20039;-84